Tiempo atmosférico en la estación meteorológica de Madrigal De La Vera, Cáceres (464 m.)



Fecha
DESCASC
Temp. máxima en grados centígrados (hora)
DESCASC
Temp. mínima en grados centígrados (hora)
DESCASC
Temp. media en grados centígrados
DESCASC
Racha de viento máxima en m/sg (hora)
DESCASC
Velocidad máxima media en intervalos de 10 minutos(hora)
DESCASC
Precipitaciones diarias en mm
DESCASC
Precipitaciones de 00:00 a 06:00 en mm
DESCASC
Precipitaciones de 06:00 a 12:00 en mm
DESCASC
Precipitaciones de 12:00 a 18:00 en mm
DESCASC
Precipitaciones de 18:00 a 24:00 en mm
DESCASC
13-02-2020 14 (16:30) 9.3 (22:40) 11.7 3.06 (16:10) 1.39 (16:10) 0.2 0.2 0 0 0
12-02-2020 13.7 (14:40) 9.2 (03:20) 11.4 2.5 (10:00) 1.11 (01:20) 0 0 0 0 0
11-02-2020 12.9 (16:30) 10.6 (23:59) 11.8 2.78 (17:30) 1.39 (16:50) 0 0 0 0 0
10-02-2020 15 (16:50) 8.2 (00:00) 11.6 3.06 (10:20) 1.39 (10:20) 0 0 0 0 0
09-02-2020 13.1 (17:00) 6.5 (00:00) 9.8 3.33 (02:20) 1.94 (02:20) 0.4 0 0.4 0 0
08-02-2020 12.8 (17:20) 6.4 (00:00) 9.6 3.33 (06:50) 1.67 (06:50) 0.4 0 0.2 0.2 0
07-02-2020 15.6 (15:50) 6.1 (00:00) 10.9 3.89 (14:10) 2.22 (07:20) 0 0 0 0 0
06-02-2020 14.1 (14:10) 4.9 (00:00) 9.5 4.17 (14:00) 1.94 (12:10) 0.2 0 0 0.2 0
05-02-2020 16.7 (16:50) 6.8 (00:00) 11.8 5.56 (13:10) 2.5 (12:50) 0 0 0 0 0
04-02-2020 14.5 (16:00) 6.9 (00:00) 10.7 3.89 (16:20) 2.22 (16:20) 0 0 0 0 0
03-02-2020 18.1 (16:10) 8.5 (06:30) 13.3 3.06 (17:30) 1.39 (16:20) 0 0 0 0 0
02-02-2020 15.7 (15:20) 11.6 (00:00) 13.7 2.78 (13:20) 1.39 (14:50) 0 0 0 0 0
01-02-2020 15.8 (14:20) 12.1 (00:00) 14 3.33 (04:10) 1.39 (04:00) 0 0 0 0 0
31-01-2020 13.2 (14:40) 10 (00:00) 11.6 3.89 (15:10) 1.39 (15:10) 0 0 0 0 0
30-01-2020 12.2 (13:10) 7.6 (00:00) 9.9 5 (14:00) 1.67 (14:00) 0 0 0 0 0
29-01-2020 12.5 (14:50) 10 (00:00) 11.3 4.72 (17:40) 2.22 (17:40) 0 0 0 0 0
28-01-2020 12.5 (16:10) 9 (00:00) 10.8 5.83 (16:20) 1.94 (12:40) 9.8 3.8 3.8 2.2 0
27-01-2020 11.6 (14:00) 4.5 (00:00) 8.1 6.94 (14:10) 3.06 (14:10) 5 0 0 0.8 4.2
26-01-2020 9.1 (16:00) 4.5 (00:00) 6.8 2.5 (06:10) 1.67 (06:40) 0 0 0 0 0
25-01-2020 11.9 (15:00) 6 (00:00) 8.9 4.72 (16:20) 2.22 (06:30) 15 6.8 8 0 0.2
24-01-2020 12.1 (15:00) 5.6 (00:00) 8.9 3.89 (02:20) 1.67 (14:50) 11.2 11 0.2 0 0
23-01-2020 9.2 (01:20) 6.3 (00:00) 7.8 5.28 (04:30) 1.94 (07:10) 5 1 0.4 2 1.6
22-01-2020 10.7 (14:40) 6.6 (00:00) 8.6 10.56 (10:20) 5.56 (07:00) 1.4 0.8 0.6 0 0
21-01-2020 8.4 (15:40) 4.9 (00:00) 6.6 7.22 (22:20) 2.78 (22:30) 0.2 0 0 0.2 0
20-01-2020 8.6 (21:30) 0.6 (00:00) 4.6 14.17 (00:30) 6.39 (00:30) 0 0 0 0 0
19-01-2020 12.5 (16:50) 5.6 (00:00) 9 24.44 (18:00) 11.67 (22:00) 0.4 0.2 0 0.2 0
18-01-2020 11.4 (14:20) 7.3 (00:00) 9.3 8.33 (23:59) 2.78 (18:00) 8.4 3.8 4.2 0 0.4

Gráficas

Temp. máximas Temp. mínimas Temp. medias Precipitaciones Rachas de viento máximas Velocidades máximas media en intervalos de 10 minutos

Datos horarios

Fecha y hora oficial Temperatura (ºC) Velocidad del viento (km/h) Dirección del viento Racha (km/h) Dirección de racha Precipitación (mm) Presión (hPa) Tendencia (hPa) Humedad (%)
2020-02-16 23:00:00 10.7 0 Calma 5 Oeste 0 -- -- 83
2020-02-16 22:00:00 12.2 0 Calma 9 Sudoeste 0 -- -- 77
2020-02-16 21:00:00 12.8 3 Noroeste 7 Noroeste 0 -- -- 77
2020-02-16 20:00:00 13.1 2 Noroeste 9 Sudoeste 0 -- -- 76
2020-02-16 19:00:00 14.4 4 Sudoeste 15 Sudoeste 0 -- -- 74
2020-02-16 18:00:00 16.2 5 Sudoeste 23 Sur 0 -- -- 67
2020-02-16 17:00:00 16.8 4 Sudoeste 25 Sudoeste 0 -- -- 66
2020-02-16 16:00:00 18.6 10 Sudoeste 23 Sudoeste 0 -- -- 57
2020-02-16 15:00:00 18 10 Sur 23 Sur 0 -- -- 62
2020-02-16 14:00:00 17.2 5 Sur 16 Sudoeste 0 -- -- 67
2020-02-16 13:00:00 16.2 5 Este 12 Este 0 -- -- 71
2020-02-16 12:00:00 13.8 4 Sudeste 11 Este 0 -- -- 78
2020-02-16 11:00:00 12.4 3 Este 8 Este 0 -- -- 80
2020-02-16 10:00:00 10.9 3 Este 5 Este 0 -- -- 88
2020-02-16 09:00:00 7.9 0 Calma -- -- 0 -- -- 96
2020-02-16 08:00:00 7.6 0 Calma 4 Noroeste 0 -- -- 95
2020-02-16 07:00:00 7.8 0 Calma 5 Sudoeste 0 -- -- 94
2020-02-16 06:00:00 8.1 2 Oeste 5 Noroeste 0 -- -- 89
2020-02-16 05:00:00 8.9 2 Noroeste 8 Sudoeste 0 -- -- 84
2020-02-16 04:00:00 9.3 3 Sudoeste 6 Noroeste 0 -- -- 89
2020-02-16 03:00:00 9.7 3 Sudoeste 7 Norte 0 -- -- 89
2020-02-16 02:00:00 10.2 3 Noroeste 6 Norte 0 -- -- 86
2020-02-16 01:00:00 10.4 3 Noroeste 5 Norte 0 -- -- 88
2020-02-16 00:00:00 10.3 3 Norte 6 Noroeste 0 -- -- 89
2020-02-15 23:00:00 11.1 2 Norte 5 Oeste 0 -- -- 86
2020-02-15 22:00:00 11.2 4 Noroeste 6 Noroeste 0 -- -- 87
2020-02-15 21:00:00 11.9 2 Sudoeste 8 Noroeste 0 -- -- 85
2020-02-15 20:00:00 12.2 3 Noroeste 5 Noroeste 0 -- -- 82
2020-02-15 19:00:00 13 0 Calma 6 Sur 0 -- -- 80
2020-02-15 18:00:00 15.3 0 Calma 10 Sur 0 -- -- 74
2020-02-15 17:00:00 17.1 5 Sur 11 Sur 0 -- -- 66
2020-02-15 16:00:00 16.7 4 Sur 12 Sudoeste 0 -- -- 66
2020-02-15 15:00:00 16.2 5 Sur 12 Sur 0 -- -- 67
2020-02-15 14:00:00 15.4 3 Sudeste 12 Sur 0 -- -- 71
2020-02-15 13:00:00 14.5 5 Sur 11 Sur 0 -- -- 75
2020-02-15 12:00:00 12.5 3 Sudeste 10 Sur 0 -- -- 84
2020-02-15 11:00:00 11.1 4 Sudeste 7 Este 0 -- -- 85
2020-02-15 10:00:00 9.2 2 Este 4 Este 0 -- -- 92
2020-02-15 09:00:00 7.2 0 Calma 2 Noroeste 0 -- -- 98
2020-02-15 08:00:00 7 0 Calma 4 Noroeste 0 -- -- 96
2020-02-15 07:00:00 7.3 0 Calma 3 Noroeste 0 -- -- 97
2020-02-15 06:00:00 7.8 0 Calma 3 Sudoeste 0 -- -- 96
2020-02-15 05:00:00 8 3 Noroeste 5 Noroeste 0 -- -- 97
2020-02-15 04:00:00 7.8 0 Calma 7 Sudoeste 0 -- -- 96
2020-02-15 03:00:00 8.4 0 Calma 4 Sudoeste 0 -- -- 95
2020-02-15 02:00:00 8.9 0 Calma 5 Norte 0 -- -- 92
2020-02-15 01:00:00 9.8 3 Noroeste 5 Noroeste 0 -- -- 91
2020-02-15 00:00:00 10 3 Noroeste 6 Noroeste 0 -- -- 91
2020-02-14 23:00:00 9.9 0 Calma 4 Oeste 0 -- -- 92
2020-02-14 22:00:00 10.2 2 Oeste 6 Sudoeste 0 -- -- 92
2020-02-14 21:00:00 10.1 4 Sudoeste 5 Sudoeste 0 -- -- 91
2020-02-14 20:00:00 11 0 Calma 10 Sudoeste 0 -- -- 89
2020-02-14 19:00:00 11.8 4 Sudoeste 6 Sudoeste 0 -- -- 85
2020-02-14 18:00:00 14.5 3 Sur 10 Este 0 -- -- 75
2020-02-14 17:00:00 16.9 3 Sur 13 Sudeste 0 -- -- 65
2020-02-14 16:00:00 17.2 5 Sudeste 13 Sudeste 0 -- -- 64
2020-02-14 15:00:00 16.9 5 Sudeste 13 Sudeste 0 -- -- 70
2020-02-14 14:00:00 16.4 6 Sur 13 Este 0 -- -- 71
2020-02-14 13:00:00 14.5 3 Este 12 Este 0 -- -- 73
2020-02-14 12:00:00 12.4 3 Sudeste 12 Sudeste 0 -- -- 83
2020-02-14 11:00:00 10.9 4 Sudeste 8 Este 0 -- -- 87
2020-02-14 10:00:00 9.5 2 Este 7 Sudoeste 0 -- -- 92
2020-02-14 09:00:00 6.9 2 Sur 4 Sur 0 -- -- 99
2020-02-14 08:00:00 6.4 0 Calma 2 Sudoeste 0 -- -- 96
2020-02-14 07:00:00 7.8 0 Calma 6 Noroeste 0 -- -- 94
2020-02-14 06:00:00 8.5 3 Noroeste 6 Norte 0 -- -- 92
2020-02-14 05:00:00 8.2 4 Noroeste 6 Norte 0 -- -- 94
2020-02-14 04:00:00 8.2 0 Calma 4 Noroeste 0 -- -- 94
2020-02-14 03:00:00 8.5 2 Noroeste 7 Noroeste 0 -- -- 93
2020-02-14 02:00:00 8.6 2 Noroeste 6 Norte 0 -- -- 91
2020-02-14 01:00:00 8.7 2 Norte 8 Norte 0 -- -- 91
2020-02-14 00:00:00 9.3 2 Norte 5 Norte 0 -- -- 91
2020-02-13 23:00:00 9.5 3 Noroeste 7 Norte 0 -- -- 91
2020-02-13 22:00:00 9.8 2 Noroeste 6 Norte 0 -- -- 92
2020-02-13 21:00:00 10.4 2 Oeste 5 Oeste 0 -- -- 91
2020-02-13 20:00:00 11.9 3 Oeste 8 Sudoeste 0 -- -- 86
2020-02-13 19:00:00 12.4 0 Calma 4 Sur 0 -- -- 89
2020-02-13 18:00:00 13.3 0 Calma 5 Este 0 -- -- 86
2020-02-13 17:00:00 13.9 0 Calma 11 Sur 0 -- -- 82
2020-02-13 16:00:00 13.6 2 Sur 6 Sur 0 -- -- 84
2020-02-13 15:00:00 12.6 0 Calma 4 Sudoeste 0 -- -- 89
2020-02-13 14:00:00 12.6 2 Sudoeste 6 Sur 0 -- -- 89
2020-02-13 13:00:00 12 0 Calma 6 Sur 0 -- -- 93
2020-02-13 12:00:00 11.6 3 Sur 8 Sur 0 -- -- 96
2020-02-13 11:00:00 11.1 3 Sur 5 Sur 0 -- -- 98
2020-02-13 10:00:00 10.8 0 Calma 2 Sur 0 -- -- 99
2020-02-13 09:00:00 10.5 0 Calma 2 Sudeste 0 -- -- 98
2020-02-13 08:00:00 10.5 0 Calma 9 Sudoeste 0 -- -- 98
2020-02-13 07:00:00 10.6 2 Sudoeste 4 Sudoeste 0 -- -- 98
2020-02-13 06:00:00 10.6 0 Calma 6 Sudoeste 0 -- -- 98
2020-02-13 05:00:00 10.6 0 Calma 4 Oeste 0 -- -- 98
2020-02-13 04:00:00 10.5 0 Calma -- -- 0 -- -- 98
2020-02-13 03:00:00 10.6 0 Calma -- -- 0.2 -- -- 97
2020-02-13 02:00:00 10.7 0 Calma -- -- 0 -- -- 97
2020-02-13 01:00:00 10.8 0 Calma -- -- 0 -- -- 96
2020-02-13 00:00:00 11 0 Calma -- -- 0 -- -- 94
2020-02-12 23:00:00 11.2 0 Calma -- -- 0 -- -- 92
2020-02-12 22:00:00 11.4 0 Calma 3 Noroeste 0 -- -- 91
2020-02-12 21:00:00 11.6 2 Noroeste 4 Norte 0 -- -- 89
2020-02-12 20:00:00 11.7 2 Oeste 4 Oeste 0 -- -- 90
2020-02-12 19:00:00 12.1 0 Calma 4 Nordeste 0 -- -- 89
2020-02-12 18:00:00 12.5 0 Calma 5 Nordeste 0 -- -- 86
2020-02-12 17:00:00 13.1 0 Calma 7 Este 0 -- -- 84
2020-02-12 16:00:00 13.3 2 Sudeste 6 Sudeste 0 -- -- 82
2020-02-12 15:00:00 13.3 0 Calma 8 Este 0 -- -- 84
2020-02-12 14:00:00 12.8 3 Este 5 Nordeste 0 -- -- 89
2020-02-12 13:00:00 12.1 0 Calma 6 Sudeste 0 -- -- 91
2020-02-12 12:00:00 11.6 3 Norte 7 Norte 0 -- -- 90
2020-02-12 11:00:00 11.2 2 Nordeste 6 Norte 0 -- -- 93
2020-02-12 10:00:00 10.6 3 Norte 9 Norte 0 -- -- 93
2020-02-12 09:00:00 10.5 0 Calma 5 Norte 0 -- -- 93
2020-02-12 08:00:00 10.4 2 Noroeste 3 Noroeste 0 -- -- 95
2020-02-12 07:00:00 10.2 0 Calma 3 Norte 0 -- -- 95
2020-02-12 06:00:00 10.3 0 Calma 4 Noroeste 0 -- -- 96
2020-02-12 05:00:00 10.1 0 Calma 3 Norte 0 -- -- 98
2020-02-12 04:00:00 9.6 3 Noroeste 4 Noroeste 0 -- -- 98
2020-02-12 03:00:00 9.5 0 Calma 8 Sudoeste 0 -- -- 97
2020-02-12 02:00:00 9.7 2 Noroeste 6 Sudoeste 0 -- -- 94
2020-02-12 01:00:00 10.2 0 Calma 5 Norte 0 -- -- 94
2020-02-12 00:00:00 10.6 2 Sudoeste 6 Oeste 0 -- -- 93
2020-02-11 23:00:00 10.9 3 Noroeste 8 Noroeste 0 -- -- 91
2020-02-11 22:00:00 11.1 3 Norte 6 Noroeste 0 -- -- 90
2020-02-11 21:00:00 11.6 4 Noroeste 8 Noroeste 0 -- -- 89
2020-02-11 20:00:00 11.7 3 Noroeste 5 Noroeste 0 -- -- 90
2020-02-11 19:00:00 11.6 3 Noroeste 5 Norte 0 -- -- 91
2020-02-11 18:00:00 12.6 3 Norte 10 Este 0 -- -- 86
2020-02-11 17:00:00 12.6 4 Este 9 Este 0 -- -- 87
2020-02-11 16:00:00 12.8 0 Calma 7 Sudeste 0 -- -- 87
2020-02-11 15:00:00 12.8 2 Sudeste 9 Sudeste 0 -- -- 87
2020-02-11 14:00:00 12.7 3 Este 6 Este 0 -- -- 89
2020-02-11 13:00:00 12.5 2 Sudeste 6 Este 0 -- -- 88
2020-02-11 12:00:00 12.1 3 Este 6 Este 0 -- -- 92
2020-02-11 11:00:00 11.4 0 Calma 6 Nordeste 0 -- -- 95
2020-02-11 10:00:00 11 2 Nordeste 3 Nordeste 0 -- -- 96
2020-02-11 09:00:00 10.8 0 Calma 3 Nordeste 0 -- -- 95
2020-02-11 08:00:00 10.9 0 Calma 4 Sudoeste 0 -- -- 94
2020-02-11 07:00:00 10.9 0 Calma 5 Norte 0 -- -- 93
2020-02-11 06:00:00 11.2 2 Noroeste 8 Norte 0 -- -- 91
2020-02-11 05:00:00 11.3 2 Norte 6 Norte 0 -- -- 91
2020-02-11 04:00:00 11.7 0 Calma 7 Norte 0 -- -- 90
2020-02-11 03:00:00 11.8 2 Norte 6 Norte 0 -- -- 91
2020-02-11 02:00:00 11.4 3 Norte 8 Norte 0 -- -- 91
2020-02-11 01:00:00 11.2 2 Norte 8 Nordeste 0 -- -- 91
2020-02-11 00:00:00 11.6 3 Norte 8 Norte 0 -- -- 90
2020-02-10 23:00:00 11.6 2 Norte 5 Noroeste 0 -- -- 89
2020-02-10 22:00:00 11.6 3 Norte 6 Norte 0 -- -- 87
2020-02-10 21:00:00 11.3 3 Norte 5 Norte 0 -- -- 88
2020-02-10 20:00:00 11.1 4 Norte 8 Norte 0 -- -- 91
2020-02-10 19:00:00 12.1 4 Noroeste 4 Noroeste 0 -- -- 88
2020-02-10 18:00:00 13.3 0 Calma 5 Este 0 -- -- 83
2020-02-10 17:00:00 14.8 0 Calma 7 Este 0 -- -- 77
2020-02-10 16:00:00 13.8 2 Este 6 Este 0 -- -- 80
2020-02-10 15:00:00 12.6 4 Sudeste 9 Sur 0 -- -- 87
2020-02-10 14:00:00 12.1 4 Este 9 Este 0 -- -- 86
2020-02-10 13:00:00 11.3 3 Este 9 Este 0 -- -- 90
2020-02-10 12:00:00 10.7 3 Este 8 Este 0 -- -- 91
2020-02-10 11:00:00 10 2 Este 11 Este 0 -- -- 94
2020-02-10 10:00:00 9.1 3 Nordeste 8 Nordeste 0 -- -- 95
2020-02-10 09:00:00 8.3 2 Norte 6 Norte 0 -- -- 94
2020-02-10 08:00:00 8.6 0 Calma 5 Norte 0 -- -- 97
2020-02-10 07:00:00 8.7 0 Calma -- -- 0 -- -- 97
2020-02-10 06:00:00 8.5 0 Calma -- -- 0 -- -- 98
2020-02-10 05:00:00 8.8 0 Calma 4 Noroeste 0 -- -- 97
2020-02-10 04:00:00 9.1 0 Calma 5 Noroeste 0 -- -- 98
2020-02-10 03:00:00 8.9 3 Noroeste 6 Oeste 0 -- -- 97
2020-02-10 02:00:00 9.3 0 Calma 5 Sudoeste 0 -- -- 96
2020-02-10 01:00:00 9.5 0 Calma 6 Noroeste 0 -- -- 95
2020-02-10 00:00:00 9.8 2 Noroeste 4 Norte 0 -- -- 96
2020-02-09 23:00:00 10.1 0 Calma 7 Noroeste 0 -- -- 94
2020-02-09 22:00:00 10.1 0 Calma 3 Norte 0 -- -- 96
2020-02-09 21:00:00 10.4 0 Calma 3 Noroeste 0 -- -- 95
2020-02-09 20:00:00 10.9 2 Noroeste 4 Norte 0 -- -- 94
2020-02-09 19:00:00 11.2 2 Sudoeste 3 Sudoeste 0 -- -- 92
2020-02-09 18:00:00 12.8 0 Calma 5 Sur 0 -- -- 86
2020-02-09 17:00:00 13.1 3 Sur 6 Sur 0 -- -- 83
2020-02-09 16:00:00 12.5 4 Sur 9 Sudoeste 0 -- -- 85
2020-02-09 15:00:00 12.3 2 Nordeste 6 Este 0 -- -- 84
2020-02-09 14:00:00 11.6 2 Sudeste 5 Este 0 -- -- 90
2020-02-09 13:00:00 10.3 3 Sudoeste 6 Sudoeste 0 -- -- 93
2020-02-09 12:00:00 10.2 0 Calma 3 Este 0.2 -- -- 93
2020-02-09 11:00:00 9.5 0 Calma 3 Norte 0.2 -- -- 92
2020-02-09 10:00:00 8.9 0 Calma 4 Noroeste 0 -- -- 94
2020-02-09 09:00:00 7.7 3 Noroeste 6 Este 0 -- -- 95
2020-02-09 08:00:00 6.9 0 Calma 5 Nordeste 0 -- -- 95
2020-02-09 07:00:00 6.5 0 Calma 5 Sudeste 0 -- -- 94
2020-02-09 06:00:00 7.9 2 Norte 9 Norte 0 -- -- 90
2020-02-09 05:00:00 7.6 0 Calma 6 Noroeste 0 -- -- 94
2020-02-09 04:00:00 7.3 0 Calma 6 Sudoeste 0 -- -- 95
2020-02-09 03:00:00 7.8 4 Norte 12 Noroeste 0 -- -- 87
2020-02-09 02:00:00 8.4 0 Calma 8 Noroeste 0 -- -- 93
2020-02-09 01:00:00 8.9 2 Noroeste 7 Norte 0 -- -- 93
2020-02-09 00:00:00 8.5 2 Noroeste 11 Norte 0 -- -- 91
2020-02-08 23:00:00 9.5 2 Noroeste 6 Noroeste 0 -- -- 93
2020-02-08 22:00:00 9.7 3 Sudoeste 5 Sur 0 -- -- 94
2020-02-08 21:00:00 10.1 0 Calma 8 Oeste 0 -- -- 95
2020-02-08 20:00:00 10.2 4 Noroeste 6 Noroeste 0 -- -- 94
2020-02-08 19:00:00 10.3 0 Calma 4 Sudoeste 0 -- -- 92
2020-02-08 18:00:00 12.2 0 Calma 5 Este 0 -- -- 88
2020-02-08 17:00:00 12.6 2 Nordeste 4 Nordeste 0 -- -- 85
2020-02-08 16:00:00 11.3 0 Calma 6 Este 0 -- -- 91
2020-02-08 15:00:00 10.3 2 Nordeste 6 Nordeste 0 -- -- 93
2020-02-08 14:00:00 10.2 3 Este 5 Este 0 -- -- 93
2020-02-08 13:00:00 9.7 2 Sudeste 6 Este 0.2 -- -- 95
2020-02-08 12:00:00 9.4 2 Sur 6 Sudoeste 0 -- -- 93
2020-02-08 11:00:00 8.8 0 Calma 2 Oeste 0 -- -- 96
2020-02-08 10:00:00 8.1 0 Calma 4 Noroeste 0.2 -- -- 96
2020-02-08 09:00:00 7.6 0 Calma 5 Sudeste 0 -- -- 95
2020-02-08 08:00:00 7.3 0 Calma 4 Norte 0 -- -- 94
2020-02-08 07:00:00 7.5 0 Calma 12 Sudoeste 0 -- -- 94
2020-02-08 06:00:00 6.6 3 Norte 5 Norte 0 -- -- 92
2020-02-08 05:00:00 7.2 2 Norte 5 Norte 0 -- -- 90
2020-02-08 04:00:00 7.8 3 Noroeste 9 Norte 0 -- -- 93
2020-02-08 03:00:00 7.6 0 Calma 5 Norte 0 -- -- 90
2020-02-08 02:00:00 8.5 0 Calma 4 Sudoeste 0 -- -- 90
2020-02-08 01:00:00 9 0 Calma 5 Noroeste 0 -- -- 88
2020-02-08 00:00:00 9.1 0 Calma 5 Norte 0 -- -- 89
2020-02-07 23:00:00 10 2 Noroeste 7 Noroeste 0 -- -- 84
2020-02-07 22:00:00 10.8 0 Calma 4 Norte 0 -- -- 83
2020-02-07 21:00:00 11.4 0 Calma -- -- 0 -- -- 81
2020-02-07 20:00:00 11.8 0 Calma 4 Noroeste 0 -- -- 80
2020-02-07 19:00:00 11.7 0 Calma 4 Noroeste 0 -- -- 80
2020-02-07 18:00:00 12.9 0 Calma 11 Sur 0 -- -- 78
2020-02-07 17:00:00 15.1 5 Sur 11 Sur 0 -- -- 63
2020-02-07 16:00:00 15.5 5 Sur 10 Sudeste 0 -- -- 62
2020-02-07 15:00:00 14.6 3 Sur 14 Sur 0 -- -- 61
2020-02-07 14:00:00 13.6 6 Sur 12 Sur 0 -- -- 69
2020-02-07 13:00:00 12.5 5 Sur 10 Sur 0 -- -- 75
2020-02-07 12:00:00 9.5 3 Sur 12 Sur 0 -- -- 84
2020-02-07 11:00:00 9.8 6 Sur 10 Sudoeste 0 -- -- 81
2020-02-07 10:00:00 8.1 2 Sudoeste 6 Sudoeste 0 -- -- 90
2020-02-07 09:00:00 6.7 4 Sudoeste 6 Sudoeste 0 -- -- 93
2020-02-07 08:00:00 6.8 0 Calma 12 Noroeste 0 -- -- 92
2020-02-07 07:00:00 6.1 3 Noroeste 6 Sudoeste 0 -- -- 94
2020-02-07 06:00:00 6.5 3 Sudoeste 8 Sudoeste 0 -- -- 92
2020-02-07 05:00:00 7.7 0 Calma 4 Sudoeste 0 -- -- 87
2020-02-07 04:00:00 8 2 Noroeste 5 Noroeste 0 -- -- 85
2020-02-07 03:00:00 8.5 4 Noroeste 6 Oeste 0 -- -- 84
2020-02-07 02:00:00 8.3 4 Sudoeste 7 Sudoeste 0 -- -- 87
2020-02-07 01:00:00 8.9 3 Noroeste 9 Norte 0 -- -- 83
2020-02-07 00:00:00 8.4 0 Calma 4 Noroeste 0 -- -- 85
2020-02-06 23:00:00 8.7 0 Calma 6 Sur 0 -- -- 85
2020-02-06 22:00:00 8.2 2 Oeste 5 Oeste 0 -- -- 88
2020-02-06 21:00:00 8.4 3 Noroeste 8 Noroeste 0 -- -- 87
2020-02-06 20:00:00 8 0 Calma 3 Norte 0 -- -- 89
2020-02-06 19:00:00 8.9 0 Calma 6 Sur 0 -- -- 85
2020-02-06 18:00:00 11.6 0 Calma 8 Sudeste 0 -- -- 76
2020-02-06 17:00:00 12.6 2 Sudeste 10 Este 0 -- -- 71
2020-02-06 16:00:00 13.3 3 Sudeste 14 Sur 0 -- -- 69
2020-02-06 15:00:00 13.7 6 Sudeste 15 Sudeste 0 -- -- 68
2020-02-06 14:00:00 13.7 5 Este 15 Sudeste 0.2 -- -- 69
2020-02-06 13:00:00 12.4 5 Este 14 Este 0 -- -- 71
2020-02-06 12:00:00 10.5 3 Sudeste 10 Este 0 -- -- 76
2020-02-06 11:00:00 9 3 Sudeste 10 Sudeste 0 -- -- 78
2020-02-06 10:00:00 7.7 2 Sudeste 6 Sur 0 -- -- 82
2020-02-06 09:00:00 5.1 2 Oeste 4 Sudoeste 0 -- -- 89
2020-02-06 08:00:00 5 0 Calma 3 Noroeste 0 -- -- 84
2020-02-06 07:00:00 5.9 2 Oeste 9 Sudoeste 0 -- -- 79
2020-02-06 06:00:00 6.1 2 Sudoeste 6 Sudoeste 0 -- -- 79
2020-02-06 05:00:00 6.7 2 Sudeste 6 Sudoeste 0 -- -- 74
2020-02-06 04:00:00 8 0 Calma 8 Oeste 0 -- -- 67
2020-02-06 03:00:00 9.2 3 Oeste 7 Oeste 0 -- -- 62
2020-02-06 02:00:00 9.1 0 Calma 8 Nordeste 0 -- -- 64
2020-02-06 01:00:00 9.9 4 Nordeste 12 Norte 0 -- -- 57
2020-02-06 00:00:00 10.9 5 Noroeste 10 Noroeste 0 -- -- 48
2020-02-05 23:00:00 11.4 5 Noroeste 13 Noroeste 0 -- -- 45
2020-02-05 22:00:00 10.3 4 Noroeste 8 Noroeste 0 -- -- 58
2020-02-05 21:00:00 10.2 4 Noroeste 8 Noroeste 0 -- -- 57
2020-02-05 20:00:00 11 5 Noroeste 7 Noroeste 0 -- -- 55
2020-02-05 19:00:00 11.1 2 Noroeste 5 Este 0 -- -- 56
2020-02-05 18:00:00 12.7 0 Calma 8 Este 0 -- -- 56
2020-02-05 17:00:00 16.6 3 Sudeste 10 Este 0 -- -- 41
2020-02-05 16:00:00 16.5 4 Sudeste 14 Sudeste 0 -- -- 42
2020-02-05 15:00:00 16.3 6 Sur 15 Sudeste 0 -- -- 43
2020-02-05 14:00:00 16.1 6 Este 20 Este 0 -- -- 47
2020-02-05 13:00:00 15 9 Este 20 Este 0 -- -- 50
2020-02-05 12:00:00 11.7 3 Este 13 Este 0 -- -- 73
2020-02-05 11:00:00 10.8 5 Sudeste 11 Sudeste 0 -- -- 80
2020-02-05 10:00:00 10.1 3 Nordeste 9 Norte 0 -- -- 78
2020-02-05 09:00:00 7.4 3 Noroeste 6 Sudoeste 0 -- -- 86
2020-02-05 08:00:00 7.3 3 Oeste 9 Sudoeste 0 -- -- 87
2020-02-05 07:00:00 7.4 4 Sudoeste 8 Sur 0 -- -- 91
2020-02-05 06:00:00 8.5 5 Sudoeste 9 Sudoeste 0 -- -- 88
2020-02-05 05:00:00 8.6 3 Sudoeste 8 Oeste 0 -- -- 92
2020-02-05 04:00:00 9.1 3 Oeste 8 Noroeste 0 -- -- 88
2020-02-05 03:00:00 9.4 3 Oeste 8 Noroeste 0 -- -- 92
2020-02-05 02:00:00 8.2 5 Noroeste 7 Noroeste 0 -- -- 94
2020-02-05 01:00:00 8.4 5 Oeste 10 Oeste 0 -- -- 99
2020-02-05 00:00:00 7.4 2 Noroeste 8 Noroeste 0 -- -- 99
2020-02-04 23:00:00 8 0 Calma 8 Oeste 0 -- -- 98
2020-02-04 22:00:00 9.6 4 Noroeste 8 Noroeste 0 -- -- 98
2020-02-04 21:00:00 10.4 0 Calma 7 Este 0 -- -- 98
2020-02-04 20:00:00 10.7 0 Calma 5 Sudeste 0 -- -- 96
2020-02-04 19:00:00 11.1 2 Sur 6 Este 0 -- -- 95
2020-02-04 18:00:00 11.6 2 Sur 7 Sur 0 -- -- 93
2020-02-04 12:00:00 11.5 3 Sudeste 8 Nordeste 0 -- -- 99
2020-02-04 11:00:00 9.3 0 Calma 4 Este 0 -- -- 100
2020-02-04 10:00:00 8.2 0 Calma 4 Este 0 -- -- 99
2020-02-04 09:00:00 7.8 0 Calma 4 Norte 0 -- -- 99
2020-02-04 08:00:00 7.2 2 Noroeste 4 Oeste 0 -- -- 99
2020-02-04 07:00:00 7.2 0 Calma 4 Noroeste 0 -- -- 98
2020-02-04 06:00:00 7.5 3 Noroeste 5 Noroeste 0 -- -- 98
2020-02-04 05:00:00 7 2 Noroeste 5 Noroeste 0 -- -- 97
2020-02-04 04:00:00 8.7 0 Calma 5 Noroeste 0 -- -- 98
2020-02-04 03:00:00 8.7 0 Calma 6 Norte 0 -- -- 97
2020-02-04 02:00:00 9.8 0 Calma 4 Sudoeste 0 -- -- 98
2020-02-04 01:00:00 10.8 2 Noroeste 5 Sudoeste 0 -- -- 98
2020-02-04 00:00:00 10.5 0 Calma 5 Sudoeste 0 -- -- 98
2020-02-03 23:00:00 10.8 0 Calma 5 Noroeste 0 -- -- 97
2020-02-03 22:00:00 11.3 3 Noroeste 5 Noroeste 0 -- -- 97
2020-02-03 21:00:00 11.4 3 Noroeste 6 Noroeste 0 -- -- 96
2020-02-03 20:00:00 11.6 0 Calma 7 Sudoeste 0 -- -- 95
2020-02-03 19:00:00 12.6 3 Sudoeste 7 Sudoeste 0 -- -- 91
2020-02-03 18:00:00 14.8 3 Sudoeste 11 Sur 0 -- -- 84
2020-02-03 17:00:00 17.5 5 Sur 10 Sudoeste 0 -- -- 72
2020-02-03 16:00:00 17.8 4 Sur 9 Sur 0 -- -- 73
2020-02-03 15:00:00 17.2 3 Sudeste 8 Este 0 -- -- 74
2020-02-03 14:00:00 15.3 3 Este 8 Este 0 -- -- 79
2020-02-03 13:00:00 12.6 2 Nordeste 9 Este 0 -- -- 87
2020-02-03 12:00:00 10.7 3 Este 8 Este 0 -- -- 96
2020-02-03 11:00:00 9.4 0 Calma 5 Sudeste 0 -- -- 99
2020-02-03 10:00:00 9 0 Calma 6 Noroeste 0 -- -- 99
2020-02-03 09:00:00 8.6 4 Noroeste 7 Noroeste 0 -- -- 98
2020-02-03 08:00:00 8.7 0 Calma 3 Sur 0 -- -- 98
2020-02-03 07:00:00 8.6 0 Calma 8 Sudeste 0 -- -- 98
2020-02-03 06:00:00 8.8 5 Sudoeste 10 Sudoeste 0 -- -- 97
2020-02-03 05:00:00 9.7 4 Noroeste 6 Noroeste 0 -- -- 96
2020-02-03 04:00:00 9.7 0 Calma 6 Noroeste 0 -- -- 96
2020-02-03 03:00:00 10.6 4 Noroeste 7 Noroeste 0 -- -- 94
2020-02-03 02:00:00 11.5 4 Noroeste 7 Oeste 0 -- -- 91
2020-02-03 01:00:00 11.9 3 Noroeste 5 Norte 0 -- -- 91
2020-02-03 00:00:00 11.9 3 Noroeste 8 Oeste 0 -- -- 91
2020-02-02 23:00:00 12.5 3 Norte 9 Nordeste 0 -- -- 89
2020-02-02 22:00:00 12.7 2 Noroeste 5 Nordeste 0 -- -- 90
2020-02-02 21:00:00 12.9 3 Noroeste 4 Noroeste 0 -- -- 90
2020-02-02 20:00:00 13.2 0 Calma 2 Oeste 0 -- -- 90
2020-02-02 19:00:00 13.7 0 Calma 5 Este 0 -- -- 87
2020-02-02 18:00:00 14.3 0 Calma 7 Este 0 -- -- 84
2020-02-02 17:00:00 15 3 Este 9 Sur 0 -- -- 82
2020-02-02 16:00:00 15.4 3 Sudeste 10 Sur 0 -- -- 77
2020-02-02 15:00:00 15.5 3 Este 10 Este 0 -- -- 80
2020-02-02 14:00:00 15.6 3 Sudeste 10 Sudeste 0 -- -- 79
2020-02-02 13:00:00 15.1 4 Sudeste 10 Sudeste 0 -- -- 79
2020-02-02 12:00:00 14.5 3 Nordeste 9 Este 0 -- -- 80
2020-02-02 11:00:00 13.7 0 Calma 4 Nordeste 0 -- -- 88
2020-02-02 10:00:00 12.3 2 Nordeste 10 Este 0 -- -- 87
2020-02-02 09:00:00 11.6 3 Este 9 Norte 0 -- -- 90
2020-02-02 08:00:00 11.9 0 Calma 8 Nordeste 0 -- -- 91
2020-02-02 07:00:00 12 0 Calma 5 Sudoeste 0 -- -- 93
2020-02-02 06:00:00 12.1 3 Noroeste 5 Norte 0 -- -- 94
2020-02-02 05:00:00 12.1 2 Sudoeste 4 Sudoeste 0 -- -- 94
2020-02-02 04:00:00 12.7 0 Calma 3 Sudoeste 0 -- -- 95
2020-02-02 03:00:00 12.9 0 Calma 4 Oeste 0 -- -- 95
2020-02-02 02:00:00 13 2 Noroeste 5 Oeste 0 -- -- 95
2020-02-02 01:00:00 12.7 2 Sudoeste 4 Noroeste 0 -- -- 97
2020-02-02 00:00:00 12.8 0 Calma 4 Norte 0 -- -- 97
2020-02-01 23:00:00 12.7 0 Calma 3 Noroeste 0 -- -- 97
2020-02-01 22:00:00 12.7 0 Calma 3 Sudoeste 0 -- -- 96
2020-02-01 21:00:00 12.9 0 Calma 5 Sudoeste 0 -- -- 96
2020-02-01 20:00:00 13.4 3 Sudoeste 5 Sudoeste 0 -- -- 94
2020-02-01 19:00:00 13.9 0 Calma 3 Sudoeste 0 -- -- 94
2020-02-01 18:00:00 14.4 0 Calma 6 Sudoeste 0 -- -- 92
2020-02-01 17:00:00 14.8 0 Calma 4 Nordeste 0 -- -- 91
2020-02-01 16:00:00 15 2 Nordeste 6 Este 0 -- -- 89
2020-02-01 15:00:00 15.5 3 Este 10 Este 0 -- -- 87
2020-02-01 14:00:00 15.1 5 Este 9 Este 0 -- -- 92
2020-02-01 13:00:00 14.7 4 Sur 8 Sur 0 -- -- 94
2020-02-01 12:00:00 14.1 0 Calma 4 Sudoeste 0 -- -- 98
2020-02-01 11:00:00 13.2 0 Calma 4 Nordeste 0 -- -- 99
2020-02-01 10:00:00 12.5 0 Calma 4 Este 0 -- -- 99
2020-02-01 09:00:00 12.2 0 Calma 5 Noroeste 0 -- -- 99
2020-02-01 08:00:00 12.2 0 Calma 4 Noroeste 0 -- -- 99
2020-02-01 07:00:00 12.3 0 Calma 5 Sudoeste 0 -- -- 99
2020-02-01 06:00:00 12.4 2 Noroeste 6 Sudoeste 0 -- -- 99
2020-02-01 05:00:00 12.4 0 Calma 12 Oeste 0 -- -- 99
2020-02-01 04:00:00 12.5 5 Sudoeste 10 Sudoeste 0 -- -- 99
2020-02-01 03:00:00 12.1 0 Calma 5 Sudoeste 0 -- -- 99
2020-02-01 02:00:00 12.1 2 Noroeste 4 Oeste 0 -- -- 99
2020-02-01 01:00:00 12.1 2 Noroeste 4 Norte 0 -- -- 99
2020-02-01 00:00:00 12.1 0 Calma 5 Norte 0 -- -- 99
2020-01-31 23:00:00 12.3 0 Calma 8 Noroeste 0 -- -- 98
2020-01-31 22:00:00 12.4 0 Calma 4 Sur 0 -- -- 98
2020-01-31 21:00:00 12.3 0 Calma 4 Norte 0 -- -- 98
2020-01-31 20:00:00 12.5 0 Calma 4 Noroeste 0 -- -- 98
2020-01-31 19:00:00 12.4 0 Calma 5 Nordeste 0 -- -- 97
2020-01-31 18:00:00 12.6 3 Noroeste 5 Noroeste 0 -- -- 97
2020-01-31 17:00:00 12.8 0 Calma 4 Norte 0 -- -- 96
2020-01-31 16:00:00 12.8 2 Norte 14 Sudoeste 0 -- -- 96
2020-01-31 15:00:00 13 3 Sur 10 Sur 0 -- -- 95
2020-01-31 14:00:00 12.7 2 Sur 5 Sudoeste 0 -- -- 96
2020-01-31 13:00:00 12.2 0 Calma 5 Sudoeste 0 -- -- 97
2020-01-31 12:00:00 11.8 0 Calma 0 Calma 0 -- -- 98
2020-01-31 11:00:00 11.5 0 Calma -- -- 0 -- -- 99
2020-01-31 10:00:00 10.7 0 Calma 3 Nordeste 0 -- -- 98
2020-01-31 09:00:00 10.3 0 Calma 3 Norte 0 -- -- 98
2020-01-31 08:00:00 10.3 0 Calma 4 Nordeste 0 -- -- 98
2020-01-31 07:00:00 10.2 0 Calma 4 Norte 0 -- -- 98
2020-01-31 06:00:00 10.1 2 Norte 5 Norte 0 -- -- 97
2020-01-31 05:00:00 10.1 3 Norte 5 Norte 0 -- -- 98
2020-01-31 04:00:00 10.1 0 Calma 10 Sudoeste 0 -- -- 98
2020-01-31 03:00:00 10.4 2 Sudoeste 5 Sudoeste 0 -- -- 98
2020-01-31 02:00:00 10.2 3 Oeste 7 Sudoeste 0 -- -- 98
2020-01-31 01:00:00 10.1 0 Calma 3 Norte 0 -- -- 98
2020-01-31 00:00:00 10.2 0 Calma 4 Nordeste 0 -- -- 97
2020-01-30 23:00:00 10.3 0 Calma 3 Nordeste 0 -- -- 96
2020-01-30 22:00:00 10.4 0 Calma 7 Sudoeste 0 -- -- 95
2020-01-30 21:00:00 10.7 2 Sudoeste 6 Sudoeste 0 -- -- 94
2020-01-30 20:00:00 10.7 3 Oeste 9 Sudoeste 0 -- -- 94
2020-01-30 19:00:00 10.8 3 Oeste 9 Noroeste 0 -- -- 92
2020-01-30 18:00:00 11 3 Sudoeste 15 Sudoeste 0 -- -- 90
2020-01-30 17:00:00 11.4 2 Oeste 10 Sudoeste 0 -- -- 88
2020-01-30 16:00:00 11.4 4 Sudoeste 12 Sudoeste 0 -- -- 88
2020-01-30 15:00:00 11.5 2 Sudoeste 13 Sur 0 -- -- 87
2020-01-30 14:00:00 11.6 6 Sudoeste 18 Sudoeste 0 -- -- 86
2020-01-30 13:00:00 12.1 3 Sur 12 Sur 0 -- -- 87
2020-01-30 12:00:00 10.9 2 Este 5 Este 0 -- -- 94
2020-01-30 11:00:00 9.8 0 Calma 5 Este 0 -- -- 92
2020-01-30 10:00:00 9.4 2 Sudoeste 11 Sudoeste 0 -- -- 92
2020-01-30 09:00:00 8.6 0 Calma 8 Noroeste 0 -- -- 92
2020-01-30 08:00:00 8.3 2 Oeste 6 Sudoeste 0 -- -- 95
2020-01-30 07:00:00 7.9 3 Sudoeste 8 Sudoeste 0 -- -- 94
2020-01-30 06:00:00 8.1 0 Calma 7 Noroeste 0 -- -- 95
2020-01-30 05:00:00 8.7 3 Noroeste 5 Noroeste 0 -- -- 93
2020-01-30 04:00:00 8.7 3 Norte 5 Sudoeste 0 -- -- 93
2020-01-30 03:00:00 9 0 Calma 5 Norte 0 -- -- 94
2020-01-30 02:00:00 9.3 3 Noroeste 5 Noroeste 0 -- -- 95
2020-01-30 01:00:00 9.7 0 Calma 6 Sudoeste 0 -- -- 95
2020-01-30 00:00:00 10.1 3 Sudoeste 9 Sudoeste 0 -- -- 94
2020-01-29 23:00:00 10.6 2 Noroeste 6 Oeste 0 -- -- 91
2020-01-29 22:00:00 11.1 3 Oeste 10 Noroeste 0 -- -- 90
2020-01-29 21:00:00 11.5 3 Oeste 14 Oeste 0 -- -- 89
2020-01-29 20:00:00 11.4 3 Oeste 14 Sudoeste 0 -- -- 93
2020-01-29 19:00:00 11.5 4 Oeste 15 Sudoeste 0 -- -- 94
2020-01-29 18:00:00 11.9 6 Sudoeste 17 Sudoeste 0 -- -- 93
2020-01-29 17:00:00 12 4 Sudoeste 12 Sudoeste 0 -- -- 94
2020-01-29 16:00:00 12 3 Sudoeste 15 Sudoeste 0 -- -- 96
2020-01-29 15:00:00 12.4 5 Sudoeste 10 Sudoeste 0 -- -- 93
2020-01-29 14:00:00 12.3 0 Calma 11 Sur 0 -- -- 95
2020-01-29 13:00:00 12.1 0 Calma 4 Este 0 -- -- 95
2020-01-29 12:00:00 12.1 0 Calma 8 Sudeste 0 -- -- 95
2020-01-29 11:00:00 11.5 0 Calma 5 Nordeste 0 -- -- 99
2020-01-29 10:00:00 10.6 0 Calma 6 Nordeste 0 -- -- 99
2020-01-29 09:00:00 10.2 2 Nordeste 6 Nordeste 0 -- -- 99
2020-01-29 08:00:00 10.3 2 Este 6 Nordeste 0 -- -- 99
2020-01-29 07:00:00 10.5 0 Calma 3 Nordeste 0 -- -- 99
2020-01-29 06:00:00 10.6 0 Calma 3 Norte 0 -- -- 99
2020-01-29 05:00:00 10.6 0 Calma 4 Nordeste 0 -- -- 99
2020-01-29 04:00:00 10.7 0 Calma 3 Este 0 -- -- 99
2020-01-29 03:00:00 10.8 0 Calma 4 Este 0 -- -- 99
2020-01-29 02:00:00 10.9 0 Calma 4 Norte 0 -- -- 98
2020-01-29 01:00:00 11 0 Calma 3 Norte 0 -- -- 98
2020-01-29 00:00:00 11 0 Calma 3 Este 0 -- -- 98
2020-01-28 23:00:00 10.9 0 Calma 5 Nordeste 0 -- -- 98
2020-01-28 22:00:00 11.4 3 Oeste 12 Sudoeste 0 -- -- 97
2020-01-28 21:00:00 11.5 4 Sudoeste 11 Sudoeste 0 -- -- 98
2020-01-28 20:00:00 11.6 0 Calma 17 Sudoeste 0 -- -- 97
2020-01-28 19:00:00 11.7 2 Norte 14 Sudoeste 0 -- -- 96
2020-01-28 18:00:00 12.2 2 Oeste 13 Sudoeste 0 -- -- 95
2020-01-28 17:00:00 12.5 0 Calma 21 Sur 0 -- -- 96
2020-01-28 16:00:00 12.4 4 Sudoeste 15 Sur 0 -- -- 97
2020-01-28 15:00:00 12.2 4 Sudoeste 19 Oeste 1.4 -- -- 97
2020-01-28 14:00:00 12 5 Sudoeste 17 Oeste 0 -- -- 98
2020-01-28 13:00:00 11.7 4 Sudoeste 20 Sur 0.8 -- -- 98
2020-01-28 12:00:00 11.7 5 Sudoeste 17 Sur 0.6 -- -- 99
2020-01-28 11:00:00 11.2 3 Sudoeste 9 Sudoeste 1.2 -- -- 99
2020-01-28 10:00:00 10.6 3 Sudoeste 14 Sudoeste 1.2 -- -- 99
2020-01-28 09:00:00 10.3 0 Calma 5 Noroeste 0.2 -- -- 99
2020-01-28 08:00:00 10.3 0 Calma 4 Sur 0.2 -- -- 99
2020-01-28 07:00:00 10.2 0 Calma 11 Sudoeste 0.4 -- -- 99
2020-01-28 06:00:00 10.2 3 Oeste 13 Sudoeste 0.2 -- -- 99
2020-01-28 05:00:00 10.1 0 Calma 15 Sur 0 -- -- 99
2020-01-28 04:00:00 9.7 0 Calma 11 Sudoeste 0 -- -- 98
2020-01-28 03:00:00 9.4 0 Calma 7 Sudoeste 0.6 -- -- 98
2020-01-28 02:00:00 9.1 0 Calma 4 Oeste 1.6 -- -- 98
2020-01-28 01:00:00 9 0 Calma 4 Norte 1.4 -- -- 98
2020-01-28 00:00:00 9 0 Calma 4 Oeste 1.2 -- -- 98
2020-01-27 23:00:00 9 2 Noroeste 6 Sudoeste 0.4 -- -- 98
2020-01-27 22:00:00 8.8 3 Oeste 6 Norte 0.8 -- -- 97
2020-01-27 21:00:00 8.5 3 Noroeste 5 Noroeste 0.6 -- -- 97
2020-01-27 20:00:00 8.6 4 Norte 8 Norte 0.6 -- -- 96
2020-01-27 19:00:00 8.7 3 Noroeste 7 Oeste 0.6 -- -- 96
2020-01-27 18:00:00 9.1 2 Oeste 18 Sudoeste 0.2 -- -- 93
2020-01-27 17:00:00 9.5 7 Sudoeste 17 Sudoeste 0.2 -- -- 89
2020-01-27 16:00:00 10.3 9 Sudoeste 18 Oeste 0.2 -- -- 84
2020-01-27 15:00:00 10.8 8 Sudoeste 25 Sur 0 -- -- 85
2020-01-27 14:00:00 11.6 10 Sudoeste 24 Sur 0.2 -- -- 81
2020-01-27 13:00:00 8.7 2 Nordeste 6 Sur 0 -- -- 90
2020-01-27 12:00:00 8.2 4 Oeste 12 Oeste 0 -- -- 93
2020-01-27 11:00:00 7.4 3 Sudoeste 5 Sudoeste 0 -- -- 95
2020-01-27 10:00:00 6.9 0 Calma 6 Oeste 0 -- -- 94
2020-01-27 09:00:00 6.3 0 Calma 6 Norte 0 -- -- 94
2020-01-27 08:00:00 5.6 3 Norte 5 Norte 0 -- -- 93
2020-01-27 07:00:00 5.7 0 Calma 3 Sudoeste 0 -- -- 94
2020-01-27 06:00:00 5.1 0 Calma 6 Norte 0 -- -- 95
2020-01-27 05:00:00 4.9 2 Oeste 7 Noroeste 0 -- -- 94
2020-01-27 04:00:00 4.8 0 Calma 4 Noroeste 0 -- -- 95
2020-01-27 03:00:00 5.3 2 Noroeste 5 Noroeste 0 -- -- 93
2020-01-27 02:00:00 5.3 3 Noroeste 4 Noroeste 0 -- -- 93
2020-01-27 01:00:00 5.1 3 Noroeste 5 Noroeste 0 -- -- 94
2020-01-27 00:00:00 5.2 2 Norte 5 Norte 0 -- -- 93
2020-01-26 23:00:00 5.2 0 Calma 4 Noroeste 0 -- -- 93
2020-01-26 22:00:00 5.8 0 Calma 6 Noroeste 0 -- -- 92
2020-01-26 21:00:00 6 2 Noroeste 6 Noroeste 0 -- -- 92
2020-01-26 20:00:00 5.8 3 Noroeste 5 Noroeste 0 -- -- 93
2020-01-26 19:00:00 6.4 4 Noroeste 6 Noroeste 0 -- -- 91
2020-01-26 18:00:00 7.7 0 Calma 4 Nordeste 0 -- -- 87
2020-01-26 17:00:00 8.9 0 Calma 9 Sudoeste 0 -- -- 81
2020-01-26 16:00:00 9.1 3 Sur 8 Sur 0 -- -- 81
2020-01-26 15:00:00 8.7 3 Sudeste 8 Sudeste 0 -- -- 83
2020-01-26 14:00:00 8.6 3 Sudeste 8 Sudeste 0 -- -- 85
2020-01-26 13:00:00 7.8 0 Calma 7 Sur 0 -- -- 88
2020-01-26 12:00:00 7.5 3 Sudoeste 7 Sur 0 -- -- 89
2020-01-26 11:00:00 7.4 3 Sur 6 Sudeste 0 -- -- 94
2020-01-26 10:00:00 6.6 0 Calma 4 Norte 0 -- -- 96
2020-01-26 09:00:00 5.7 0 Calma 3 Oeste 0 -- -- 97
2020-01-26 08:00:00 5.7 2 Noroeste 9 Noroeste 0 -- -- 98
2020-01-26 07:00:00 4.7 3 Noroeste 9 Noroeste 0 -- -- 97
2020-01-26 06:00:00 5.1 3 Norte 6 Nordeste 0 -- -- 96
2020-01-26 05:00:00 5.8 2 Norte 4 Noroeste 0 -- -- 97
2020-01-26 04:00:00 6 0 Calma 6 Nordeste 0 -- -- 97
2020-01-26 03:00:00 5.9 2 Nordeste 5 Norte 0 -- -- 96
2020-01-26 02:00:00 6.1 3 Noroeste 4 Norte 0 -- -- 98
2020-01-26 01:00:00 5.9 0 Calma 5 Norte 0 -- -- 97
2020-01-26 00:00:00 6.1 0 Calma 4 Noroeste 0 -- -- 96
2020-01-25 23:00:00 7 3 Noroeste 5 Noroeste 0 -- -- 94
2020-01-25 22:00:00 7.8 2 Noroeste 4 Norte 0.2 -- -- 94
2020-01-25 21:00:00 8.1 0 Calma 5 Sudoeste 0 -- -- 95
2020-01-25 20:00:00 8.2 3 Noroeste 6 Oeste 0 -- -- 91
2020-01-25 19:00:00 8.7 3 Oeste 6 Oeste 0 -- -- 90
2020-01-25 18:00:00 9.7 0 Calma 9 Este 0 -- -- 88
2020-01-25 17:00:00 10.3 4 Este 17 Este 0 -- -- 85
2020-01-25 16:00:00 11.4 3 Sudeste 14 Sudeste 0 -- -- 83
2020-01-25 15:00:00 11.9 4 Sudeste 10 Sudeste 0 -- -- 87
2020-01-25 14:00:00 11 4 Este 9 Sur 0 -- -- 87
2020-01-25 13:00:00 10.4 3 Este 9 Sudeste 0 -- -- 90
2020-01-25 12:00:00 9.6 3 Este 7 Nordeste 0 -- -- 95
2020-01-25 11:00:00 8.5 0 Calma 8 Norte 0 -- -- 94
2020-01-25 10:00:00 7.2 2 Norte 9 Norte 1 -- -- 95
2020-01-25 09:00:00 6.8 3 Noroeste 7 Sudoeste 1.6 -- -- 96
2020-01-25 08:00:00 6.9 2 Oeste 9 Norte 2.4 -- -- 97
2020-01-25 07:00:00 6.7 5 Oeste 15 Sudoeste 3 -- -- 96
2020-01-25 06:00:00 6.8 0 Calma 9 Noroeste 1.2 -- -- 95
2020-01-25 05:00:00 6.9 3 Oeste 9 Noroeste 1 -- -- 94
2020-01-25 04:00:00 7.2 4 Noroeste 11 Nordeste 1.4 -- -- 93
2020-01-25 03:00:00 7.2 4 Nordeste 10 Nordeste 2 -- -- 95
2020-01-25 02:00:00 7.2 2 Sur 9 Este 1.2 -- -- 93
2020-01-25 01:00:00 8.2 4 Norte 13 Norte 0 -- -- 83
2020-01-25 00:00:00 8.6 3 Noroeste 10 Norte 0 -- -- 74
2020-01-24 23:00:00 8 2 Norte 9 Noroeste 0 -- -- 80
2020-01-24 22:00:00 7.7 3 Norte 7 Norte 0 -- -- 82
2020-01-24 21:00:00 7.9 3 Noroeste 5 Noroeste 0 -- -- 84
2020-01-24 20:00:00 8.1 3 Noroeste 6 Norte 0 -- -- 84
2020-01-24 19:00:00 8.3 0 Calma 5 Norte 0 -- -- 89
2020-01-24 18:00:00 9.6 0 Calma 3 Este 0 -- -- 86
2020-01-24 17:00:00 10.5 2 Nordeste 6 Este 0 -- -- 79
2020-01-24 16:00:00 11 3 Sudeste 12 Sudeste 0 -- -- 78
2020-01-24 15:00:00 12.1 3 Este 13 Nordeste 0 -- -- 76
2020-01-24 14:00:00 10.1 4 Este 8 Este 0 -- -- 84
2020-01-24 13:00:00 10 3 Sudeste 8 Sudeste 0 -- -- 87
2020-01-24 12:00:00 8.6 2 Nordeste 7 Este 0 -- -- 93
2020-01-24 11:00:00 7.7 4 Este 9 Este 0 -- -- 96
2020-01-24 10:00:00 6.7 2 Nordeste 7 Noroeste 0 -- -- 96
2020-01-24 09:00:00 5.9 3 Noroeste 6 Norte 0.2 -- -- 96
2020-01-24 08:00:00 5.7 0 Calma 6 Noroeste 0 -- -- 96
2020-01-24 07:00:00 5.7 4 Noroeste 8 Noroeste 0 -- -- 94
2020-01-24 06:00:00 5.8 3 Noroeste 10 Oeste 1.2 -- -- 95
2020-01-24 05:00:00 6.2 3 Noroeste 6 Noroeste 2.8 -- -- 95
2020-01-24 04:00:00 6.6 3 Noroeste 8 Noroeste 2.2 -- -- 94
2020-01-24 03:00:00 7.4 3 Noroeste 14 Oeste 1.8 -- -- 96
2020-01-24 02:00:00 7.5 4 Noroeste 5 Noroeste 1.6 -- -- 96
2020-01-24 01:00:00 7.7 0 Calma 5 Nordeste 1.4 -- -- 95
2020-01-24 00:00:00 8 2 Este 9 Este 1 -- -- 91
2020-01-23 23:00:00 8.5 2 Este 10 Sudeste 0.4 -- -- 88
2020-01-23 22:00:00 8.8 3 Nordeste 9 Este 0 -- -- 84
2020-01-23 21:00:00 8.5 3 Este 10 Este 0 -- -- 83
2020-01-23 20:00:00 7.7 0 Calma 5 Este 0 -- -- 90
2020-01-23 19:00:00 7.8 2 Norte 8 Noroeste 0.2 -- -- 89
2020-01-23 18:00:00 7.5 4 Noroeste 8 Oeste 0.2 -- -- 93
2020-01-23 17:00:00 7.6 2 Oeste 9 Sudoeste 0.6 -- -- 93
2020-01-23 16:00:00 8.3 2 Sudoeste 8 Norte 0 -- -- 90
2020-01-23 15:00:00 8.3 2 Nordeste 6 Noroeste 0 -- -- 84
2020-01-23 14:00:00 7.5 4 Noroeste 8 Oeste 0.6 -- -- 94
2020-01-23 13:00:00 6.8 4 Oeste 10 Oeste 0.6 -- -- 92
2020-01-23 12:00:00 7.1 2 Noroeste 10 Este 0 -- -- 85
2020-01-23 11:00:00 6.8 3 Sudoeste 8 Sudoeste 0.2 -- -- 90
2020-01-23 10:00:00 6.4 3 Noroeste 8 Oeste 0 -- -- 90
2020-01-23 09:00:00 6.3 2 Sudoeste 6 Sudeste 0 -- -- 89
2020-01-23 08:00:00 6.8 0 Calma 18 Sudoeste 0 -- -- 86
2020-01-23 07:00:00 6.6 5 Sudoeste 18 Este 0.2 -- -- 89
2020-01-23 06:00:00 6.8 0 Calma 11 Este 0 -- -- 89
2020-01-23 05:00:00 6.9 3 Norte 19 Este 1 -- -- 87
2020-01-23 04:00:00 7.8 4 Este 18 Este 0 -- -- 81
2020-01-23 03:00:00 8.3 3 Sur 13 Sur 0 -- -- 76
2020-01-23 02:00:00 8.3 2 Sur 17 Este 0 -- -- 74
2020-01-23 01:00:00 9 4 Este 11 Este 0 -- -- 71
2020-01-23 00:00:00 9 2 Este 12 Nordeste 0 -- -- 70
2020-01-22 23:00:00 9.3 0 Calma 12 Este 0 -- -- 71
2020-01-22 22:00:00 9.3 4 Nordeste 14 Este 0 -- -- 65
2020-01-22 21:00:00 8.8 2 Norte 9 Noroeste 0 -- -- 66
2020-01-22 20:00:00 8.7 4 Norte 13 Noroeste 0 -- -- 65
2020-01-22 19:00:00 8.5 5 Nordeste 12 Este 0 -- -- 68
2020-01-22 18:00:00 9.7 8 Este 21 Nordeste 0 -- -- 65
2020-01-22 17:00:00 10.4 8 Este 22 Este 0 -- -- 68
2020-01-22 16:00:00 10.4 5 Este 21 Este 0 -- -- 68
2020-01-22 15:00:00 10.5 9 Este 26 Este 0 -- -- 65
2020-01-22 14:00:00 10.4 14 Este 33 Este 0 -- -- 71
2020-01-22 13:00:00 9.4 11 Este 32 Este 0 -- -- 73
2020-01-22 12:00:00 8.8 14 Este 38 Este 0 -- -- 74
2020-01-22 11:00:00 8.6 16 Este 38 Este 0 -- -- 75
2020-01-22 10:00:00 8.3 15 Este 37 Este 0 -- -- 77
2020-01-22 09:00:00 8 15 Este 33 Este 0 -- -- 79
2020-01-22 08:00:00 7.2 10 Este 31 Nordeste 0.4 -- -- 86
2020-01-22 07:00:00 7.3 20 Este 37 Este 0.2 -- -- 85
2020-01-22 06:00:00 8.2 6 Este 30 Este 0.2 -- -- 74
2020-01-22 05:00:00 7.8 7 Este 22 Nordeste 0 -- -- 80
2020-01-22 04:00:00 7.3 2 Nordeste 8 Nordeste 0 -- -- 86
2020-01-22 03:00:00 6.9 3 Oeste 12 Sudeste 0.4 -- -- 89
2020-01-22 02:00:00 6.7 2 Oeste 8 Sur 0.2 -- -- 87
2020-01-22 01:00:00 7.1 5 Sudoeste 15 Sudeste 0 -- -- 83
2020-01-22 00:00:00 7.1 6 Sur 12 Sur 0 -- -- 82
2020-01-21 23:00:00 7.3 3 Nordeste 26 Este 0 -- -- 80
2020-01-21 22:00:00 7.3 7 Este 15 Este 0 -- -- 79
2020-01-21 21:00:00 7.3 3 Noroeste 17 Sur 0 -- -- 80
2020-01-21 20:00:00 7.2 4 Sur 19 Este 0 -- -- 83
2020-01-21 19:00:00 8.1 2 Oeste 12 Noroeste 0 -- -- 76
2020-01-21 18:00:00 7.8 3 Oeste 8 Noroeste 0 -- -- 78
2020-01-21 17:00:00 8 0 Calma 6 Sudoeste 0 -- -- 88
2020-01-21 16:00:00 8.3 0 Calma 6 Oeste 0 -- -- 86
2020-01-21 15:00:00 8.1 0 Calma 6 Nordeste 0 -- -- 84
2020-01-21 14:00:00 7.4 0 Calma 10 Sudoeste 0.2 -- -- 87
2020-01-21 13:00:00 7.1 6 Sudoeste 12 Oeste 0 -- -- 78
2020-01-21 12:00:00 7.2 3 Norte 10 Sudoeste 0 -- -- 81
2020-01-21 11:00:00 7.1 3 Sudoeste 7 Sur 0 -- -- 75
2020-01-21 10:00:00 5.3 3 Oeste 6 Noroeste 0 -- -- 80
2020-01-21 09:00:00 5.3 0 Calma 6 Oeste 0 -- -- 76
2020-01-21 08:00:00 6 2 Oeste 16 Sur 0 -- -- 75
2020-01-21 07:00:00 6.4 6 Sudoeste 13 Sur 0 -- -- 71
2020-01-21 06:00:00 6.3 0 Calma 12 Este 0 -- -- 78
2020-01-21 05:00:00 6.6 2 Este 13 Este 0 -- -- 75
2020-01-21 04:00:00 6.2 0 Calma 20 Oeste 0 -- -- 83
2020-01-21 03:00:00 6.1 6 Noroeste 11 Oeste 0 -- -- 80
2020-01-21 02:00:00 7.3 2 Oeste 13 Nordeste 0 -- -- 75
2020-01-21 01:00:00 7.8 3 Este 14 Este 0 -- -- 61
2020-01-21 00:00:00 7.6 6 Sur 17 Sudeste 0 -- -- 60
2020-01-20 23:00:00 8.4 5 Sudeste 21 Sudeste 0 -- -- 58
2020-01-20 22:00:00 8 6 Sudeste 29 Este 0 -- -- 56
2020-01-20 21:00:00 8.2 10 Este 22 Este 0 -- -- 56
2020-01-20 20:00:00 7.4 4 Este 25 Este 0 -- -- 60
2020-01-20 19:00:00 7.4 3 Sudoeste 12 Oeste 0 -- -- 61
2020-01-20 18:00:00 7.6 3 Oeste 9 Sudoeste 0 -- -- 60
2020-01-20 17:00:00 8.4 2 Sudeste 15 Este 0 -- -- 56
2020-01-20 16:00:00 8.2 3 Sudoeste 9 Sudoeste 0 -- -- 52
2020-01-20 15:00:00 7.6 4 Sudoeste 14 Sur 0 -- -- 52
2020-01-20 14:00:00 6.7 3 Sudoeste 9 Noroeste 0 -- -- 56
2020-01-20 13:00:00 6.1 2 Nordeste 10 Sur 0 -- -- 50
2020-01-20 12:00:00 5.1 3 Oeste 11 Sur 0 -- -- 52
2020-01-20 11:00:00 4 3 Sur 11 Sudoeste 0 -- -- 51
2020-01-20 10:00:00 2.6 3 Oeste 8 Oeste 0 -- -- 59
2020-01-20 09:00:00 1.3 3 Noroeste 6 Noroeste 0 -- -- 54
2020-01-20 08:00:00 1.2 2 Sudoeste 10 Sudoeste 0 -- -- 56
2020-01-20 07:00:00 2.4 4 Oeste 21 Sudoeste 0 -- -- 50
2020-01-20 06:00:00 4.3 13 Sudoeste 23 Sudoeste 0 -- -- 41
2020-01-20 05:00:00 5.4 4 Oeste 31 Norte 0 -- -- 37
2020-01-20 04:00:00 6.1 9 Nordeste 33 Noroeste 0 -- -- 32
2020-01-20 03:00:00 5.9 11 Norte 30 Norte 0 -- -- 34
2020-01-20 02:00:00 6 7 Norte 44 Norte 0 -- -- 32
2020-01-20 01:00:00 6 19 Norte 51 Norte 0 -- -- 34
2020-01-20 00:00:00 5.9 24 Norte 77 Noroeste 0 -- -- 37
2020-01-19 23:00:00 5.9 28 Norte 76 Noroeste 0 -- -- 35
2020-01-19 22:00:00 6.6 42 Norte 84 Noroeste 0 -- -- 32
2020-01-19 21:00:00 7.4 41 Norte 87 Norte 0 -- -- 26
2020-01-19 20:00:00 8.5 40 Norte 82 Nordeste 0 -- -- 25
2020-01-19 19:00:00 9.2 34 Norte 81 Norte 0 -- -- 27
2020-01-19 18:00:00 9.7 32 Norte 88 Norte 0.2 -- -- 32
2020-01-19 17:00:00 12.3 17 Norte 63 Norte 0 -- -- 25
2020-01-19 16:00:00 10.9 16 Nordeste 60 Norte 0 -- -- 34
2020-01-19 15:00:00 10.9 9 Norte 44 Norte 0 -- -- 35
2020-01-19 14:00:00 9.6 18 Noroeste 48 Norte 0 -- -- 47
2020-01-19 13:00:00 9.6 9 Noroeste 54 Norte 0 -- -- 49
2020-01-19 12:00:00 9.1 19 Nordeste 65 Nordeste 0 -- -- 59
2020-01-19 11:00:00 9.5 12 Este 50 Este 0 -- -- 56
2020-01-19 10:00:00 7.9 9 Este 40 Noroeste 0 -- -- 70
2020-01-19 09:00:00 7.8 3 Sur 24 Nordeste 0 -- -- 75
2020-01-19 08:00:00 8.7 7 Norte 27 Norte 0 -- -- 62
2020-01-19 07:00:00 7.3 6 Oeste 26 Noroeste 0 -- -- 74
2020-01-19 06:00:00 6.2 3 Noroeste 14 Norte 0 -- -- 91
2020-01-19 05:00:00 6.9 6 Nordeste 21 Nordeste 0 -- -- 82
2020-01-19 04:00:00 6.5 2 Noroeste 9 Noroeste 0.2 -- -- 91
2020-01-19 03:00:00 7.4 0 Calma 16 Nordeste 0 -- -- 86
2020-01-19 02:00:00 8 2 Oeste 25 Sudoeste 0 -- -- 83
2020-01-19 01:00:00 8.6 8 Sudoeste 26 Sudoeste 0 -- -- 77
2020-01-19 00:00:00 8.7 10 Noroeste 30 Noroeste 0 -- -- 71
2020-01-18 23:00:00 8.4 2 Norte 6 Norte 0.2 -- -- 98
2020-01-18 22:00:00 8.9 5 Sudoeste 11 Sur 0 -- -- 98
2020-01-18 21:00:00 9 0 Calma 8 Sudoeste 0 -- -- 98
2020-01-18 20:00:00 9.3 3 Oeste 10 Sur 0.2 -- -- 98
2020-01-18 19:00:00 9.3 0 Calma 13 Sudoeste 0 -- -- 97
2020-01-18 18:00:00 9.3 10 Sudoeste 14 Sudoeste 0 -- -- 97
2020-01-18 17:00:00 9.8 4 Sudoeste 11 Sudoeste 0 -- -- 96
2020-01-18 16:00:00 10 4 Sudoeste 7 Sur 0 -- -- 94
2020-01-18 15:00:00 10.5 4 Sur 9 Sur 0 -- -- 92
2020-01-18 14:00:00 10.8 2 Sudeste 6 Este 0 -- -- 92
2020-01-18 13:00:00 9.5 0 Calma 5 Nordeste 0 -- -- 95
2020-01-18 12:00:00 8.8 0 Calma 3 Nordeste 0.4 -- -- 98
2020-01-18 11:00:00 8.2 0 Calma 3 Norte 0.4 -- -- 98
2020-01-18 10:00:00 7.6 2 Noroeste 4 Nordeste 0.6 -- -- 98
2020-01-18 09:00:00 7.4 0 Calma 4 Norte 0.4 -- -- 98
2020-01-18 08:00:00 7.4 2 Norte 5 Noroeste 0.6 -- -- 97
2020-01-18 07:00:00 7.4 0 Calma 6 Sur 1.8 -- -- 97
2020-01-18 06:00:00 7.5 2 Noroeste 11 Sudoeste 3 -- -- 97
2020-01-18 05:00:00 7.8 2 Noroeste 6 Sudoeste 0.8 -- -- 96
2020-01-18 04:00:00 7.8 0 Calma 4 Nordeste 0 -- -- 91
2020-01-18 03:00:00 8.1 3 Norte 8 Noroeste 0 -- -- 89
2020-01-18 02:00:00 7.7 2 Noroeste 10 Sudoeste 0 -- -- 91
2020-01-18 01:00:00 8.8 3 Noroeste 6 Norte 0 -- -- 87
2020-01-18 00:00:00 8.5 3 Noroeste 5 Oeste 0 -- -- 90